createdAt,value
2022-10-14T00:05:12.449Z,96.00
2022-10-14T00:08:12.020Z,95.87
2022-10-14T00:10:42.338Z,95.80
2022-10-14T00:13:13.323Z,95.79
2022-10-14T00:15:42.312Z,95.93
2022-10-14T00:18:11.330Z,96.00
2022-10-14T00:36:24.678Z,97.19
2022-10-14T01:19:52.102Z,97.90
2022-10-14T01:22:32.421Z,97.87
2022-10-14T01:25:09.407Z,97.87
2022-10-14T01:28:15.969Z,98.09
2022-10-14T01:31:06.214Z,98.24
2022-10-14T01:33:40.359Z,98.26
2022-10-14T01:36:28.168Z,98.18
2022-10-14T01:39:15.992Z,98.11
2022-10-14T01:41:49.975Z,98.14
2022-10-14T01:44:22.597Z,98.16
2022-10-14T01:46:53.968Z,98.26
2022-10-14T01:49:45.012Z,98.36
2022-10-14T01:52:28.022Z,98.41
2022-10-14T01:55:00.038Z,98.23
2022-10-14T01:57:31.903Z,98.08
2022-10-14T02:00:02.132Z,98.16
2022-10-14T02:03:15.093Z,98.55
2022-10-14T02:06:03.711Z,98.54
2022-10-14T02:09:05.801Z,98.64
2022-10-14T02:11:45.959Z,98.31
2022-10-14T02:14:31.462Z,98.32
2022-10-14T02:17:07.191Z,98.45
2022-10-14T02:20:12.038Z,98.37
2022-10-14T02:22:50.510Z,98.65
2022-10-14T02:25:24.115Z,99.20
2022-10-14T02:27:53.324Z,99.03
2022-10-14T02:30:21.740Z,98.48
2022-10-14T02:33:00.518Z,98.44
2022-10-14T02:35:31.589Z,98.55
2022-10-14T02:38:00.553Z,98.57
2022-10-14T02:40:39.480Z,98.53
2022-10-14T02:43:10.216Z,98.57
2022-10-14T02:45:39.465Z,98.82
2022-10-14T02:48:08.656Z,98.89
2022-10-14T02:50:38.359Z,98.82
2022-10-14T02:53:06.220Z,98.96
2022-10-14T02:55:34.087Z,99.01
2022-10-14T02:58:02.055Z,98.83
2022-10-14T03:00:31.370Z,98.92
2022-10-14T03:02:59.520Z,99.05
2022-10-14T03:05:27.662Z,99.17
2022-10-14T03:07:55.810Z,99.27
2022-10-14T03:10:24.771Z,99.08
2022-10-14T03:12:52.717Z,99.09
2022-10-14T03:15:27.283Z,98.75
2022-10-14T03:17:55.461Z,98.63
2022-10-14T03:20:27.881Z,98.87
2022-10-14T03:22:57.518Z,99.12
2022-10-14T03:25:26.327Z,99.10
2022-10-14T03:28:14.602Z,99.41
2022-10-14T03:35:45.321Z,99.62
2022-10-14T03:38:17.406Z,99.63
2022-10-14T03:40:46.594Z,99.83
2022-10-14T03:43:14.677Z,99.60
2022-10-14T03:45:54.898Z,99.71
2022-10-14T03:48:24.828Z,99.73
2022-10-14T03:50:56.888Z,99.55
2022-10-14T03:53:25.150Z,99.36
2022-10-14T03:55:53.398Z,99.30
2022-10-14T03:58:22.441Z,99.29
2022-10-14T04:00:54.171Z,99.22
2022-10-14T04:04:00.433Z,99.01
2022-10-14T04:06:28.698Z,98.90
2022-10-14T04:08:58.352Z,98.72
2022-10-14T04:11:29.679Z,98.49
2022-10-14T04:14:02.540Z,98.31
2022-10-14T04:16:31.668Z,98.39
2022-10-14T04:19:07.573Z,98.34
2022-10-14T04:21:35.511Z,98.37
2022-10-14T04:24:08.055Z,98.36
2022-10-14T04:26:52.827Z,98.07
2022-10-14T04:29:31.533Z,97.75
2022-10-14T04:32:04.451Z,97.66
2022-10-14T04:34:35.764Z,97.64
2022-10-14T04:37:03.770Z,97.51
2022-10-14T04:40:05.387Z,97.02
2022-10-14T04:42:34.068Z,96.99
2022-10-14T04:45:05.365Z,97.27
2022-10-14T04:47:48.337Z,97.51
2022-10-14T04:50:18.624Z,97.60
2022-10-14T04:53:10.589Z,97.77
2022-10-14T04:55:49.705Z,97.80
2022-10-14T04:58:18.275Z,97.92
2022-10-14T05:00:48.093Z,98.08
2022-10-14T05:03:32.500Z,98.07
2022-10-14T05:06:00.749Z,98.10
2022-10-14T05:08:28.686Z,98.15
2022-10-14T05:11:00.193Z,98.19
2022-10-14T05:13:44.122Z,98.23
2022-10-14T05:16:12.064Z,98.45
2022-10-14T05:18:41.495Z,98.59
2022-10-14T05:21:11.808Z,98.61
2022-10-14T05:24:05.820Z,99.14
2022-10-14T05:26:34.469Z,99.43
2022-10-14T05:29:04.996Z,99.65
2022-10-14T05:31:32.946Z,99.77
2022-10-14T05:34:14.115Z,99.80
2022-10-14T05:36:41.956Z,99.48
2022-10-14T05:39:11.611Z,99.30
2022-10-14T05:41:39.994Z,99.23
2022-10-14T05:44:10.812Z,99.26
2022-10-14T05:46:39.129Z,99.15
2022-10-14T05:49:07.050Z,99.18
2022-10-14T05:51:36.638Z,99.39
2022-10-14T05:54:11.552Z,99.79
2022-10-14T05:56:42.203Z,99.55
2022-10-14T05:59:11.220Z,99.38
2022-10-14T06:01:40.436Z,99.71
2022-10-14T06:04:08.400Z,99.95
2022-10-14T06:06:36.296Z,99.97
2022-10-14T06:09:08.965Z,99.35
2022-10-14T06:11:39.593Z,98.71
2022-10-14T06:14:07.813Z,98.72
2022-10-14T06:16:35.877Z,99.31
2022-10-14T06:19:05.751Z,99.67
2022-10-14T06:21:33.642Z,99.47
2022-10-14T06:24:01.664Z,99.31
2022-10-14T06:26:29.638Z,99.25
2022-10-14T06:28:57.655Z,98.96
2022-10-14T06:31:29.842Z,98.82
2022-10-14T06:34:00.860Z,98.79
2022-10-14T06:36:28.682Z,98.47
2022-10-14T06:38:56.609Z,98.17
2022-10-14T06:41:24.771Z,98.31
2022-10-14T06:43:53.158Z,98.21
2022-10-14T06:46:21.112Z,97.48
2022-10-14T06:48:50.449Z,97.33
2022-10-14T06:51:18.611Z,97.26
2022-10-14T06:53:46.416Z,96.96
2022-10-14T06:56:14.720Z,96.86
2022-10-14T06:58:42.625Z,97.06
2022-10-14T07:01:10.438Z,97.37
2022-10-14T07:03:39.450Z,97.18
2022-10-14T07:06:08.683Z,97.16
2022-10-14T07:08:36.672Z,96.96
2022-10-14T07:11:05.696Z,97.07
2022-10-14T07:13:36.469Z,97.17
2022-10-14T07:16:04.950Z,97.17
2022-10-14T07:18:32.923Z,97.21
2022-10-14T07:21:05.117Z,97.55
2022-10-14T07:23:33.086Z,97.61
2022-10-14T07:26:01.367Z,98.06
2022-10-14T07:28:29.545Z,98.44
2022-10-14T07:31:03.048Z,98.61
2022-10-14T07:33:31.153Z,98.68
2022-10-14T07:36:05.480Z,98.71
2022-10-14T07:38:34.012Z,98.69
2022-10-14T07:41:05.282Z,99.11
2022-10-14T07:43:34.406Z,99.43
2022-10-14T07:46:07.565Z,99.48
2022-10-14T07:48:52.597Z,99.30
2022-10-14T07:51:24.802Z,98.94
2022-10-14T07:53:53.391Z,98.74
2022-10-14T07:56:22.522Z,98.79
2022-10-14T07:58:50.479Z,99.09
2022-10-14T08:01:19.520Z,98.87
2022-10-14T08:03:48.550Z,98.37
2022-10-14T08:06:16.942Z,98.03
2022-10-14T08:08:45.125Z,98.12
2022-10-14T08:11:20.479Z,98.43
2022-10-14T08:13:49.872Z,97.78
2022-10-14T08:16:27.368Z,97.76
2022-10-14T08:18:57.815Z,97.20
2022-10-14T08:21:26.232Z,97.14
2022-10-14T08:23:55.123Z,97.34
2022-10-14T08:26:25.902Z,97.17
2022-10-14T08:28:53.835Z,96.74
2022-10-14T08:31:22.158Z,96.50
2022-10-14T08:33:50.182Z,95.64
2022-10-14T08:36:19.501Z,94.75
2022-10-14T08:38:48.756Z,94.78
2022-10-14T08:41:26.156Z,94.08
2022-10-14T08:44:13.070Z,93.79
2022-10-14T08:46:51.096Z,93.66
2022-10-14T08:49:42.252Z,93.48
2022-10-14T08:52:18.202Z,93.41
2022-10-14T08:54:51.374Z,93.66
2022-10-14T08:57:21.932Z,93.73
2022-10-14T08:59:49.911Z,93.70
2022-10-14T09:02:35.059Z,93.70
2022-10-14T09:05:05.114Z,93.52
2022-10-14T09:07:35.824Z,93.02
2022-10-14T09:10:11.530Z,92.89
2022-10-14T09:12:40.518Z,92.89
2022-10-14T09:15:09.244Z,92.82
2022-10-14T09:17:48.520Z,92.80
2022-10-14T09:20:22.258Z,92.81
2022-10-14T09:22:55.483Z,93.02
2022-10-14T09:25:23.389Z,92.61
2022-10-14T09:27:51.472Z,91.31
2022-10-14T09:30:19.410Z,91.06
2022-10-14T09:32:55.680Z,91.05
2022-10-14T09:35:29.595Z,90.89
2022-10-14T09:37:57.427Z,88.73
2022-10-14T09:40:37.569Z,88.24
2022-10-14T09:43:08.447Z,88.40
2022-10-14T09:45:59.882Z,88.36
2022-10-14T09:48:33.905Z,87.40
2022-10-14T09:51:05.338Z,86.89
2022-10-14T09:53:45.473Z,87.00
2022-10-14T09:56:13.648Z,85.98
2022-10-14T09:58:55.433Z,85.42
2022-10-14T10:01:27.663Z,85.14
2022-10-14T10:03:56.623Z,85.39
2022-10-14T10:06:26.765Z,85.73
2022-10-14T10:08:56.562Z,84.81
2022-10-14T10:11:37.484Z,83.14
2022-10-14T10:14:28.608Z,83.35
2022-10-14T10:17:08.777Z,83.40
2022-10-14T10:19:43.738Z,83.82
2022-10-14T10:22:36.769Z,84.23
2022-10-14T10:25:06.042Z,83.52
2022-10-14T10:27:36.644Z,82.30
2022-10-14T10:30:27.471Z,81.81
2022-10-14T10:33:20.588Z,83.13
2022-10-14T10:36:15.376Z,83.51
2022-10-14T10:39:05.848Z,83.43
2022-10-14T10:41:58.730Z,82.83
2022-10-14T10:44:48.185Z,82.45
2022-10-14T10:48:02.637Z,80.72
2022-10-14T10:50:43.135Z,78.96
2022-10-14T10:53:27.330Z,79.42
2022-10-14T10:56:16.224Z,79.19
2022-10-14T10:58:58.992Z,78.34
2022-10-14T11:01:56.811Z,78.30
2022-10-14T11:04:33.914Z,79.12
2022-10-14T11:07:42.475Z,79.69
2022-10-14T11:10:48.699Z,79.09
2022-10-14T11:13:42.110Z,78.37
2022-10-14T11:16:34.328Z,79.02
2022-10-14T11:19:15.045Z,79.56
2022-10-14T11:21:51.905Z,79.13
2022-10-14T11:24:39.989Z,77.54
2022-10-14T11:27:24.052Z,77.93
2022-10-14T11:30:13.737Z,78.84
2022-10-14T11:32:50.332Z,78.93
2022-10-14T11:35:18.016Z,78.90
2022-10-14T11:38:07.847Z,79.22
2022-10-14T11:40:41.644Z,79.13
2022-10-14T11:43:13.632Z,78.48
2022-10-14T11:45:47.253Z,77.82
2022-10-14T11:48:38.420Z,78.37
2022-10-14T11:51:12.580Z,78.94
2022-10-14T11:54:11.282Z,78.94
2022-10-14T11:56:53.159Z,77.98
2022-10-14T11:59:56.936Z,78.20
2022-10-14T12:02:52.809Z,78.06
2022-10-14T12:05:41.460Z,78.33
2022-10-14T12:08:30.404Z,78.35
2022-10-14T12:11:38.838Z,77.19
2022-10-14T12:14:20.141Z,77.81
2022-10-14T12:16:49.278Z,77.65
2022-10-14T12:19:27.476Z,77.69
2022-10-14T12:22:05.062Z,77.49
2022-10-14T12:24:38.527Z,77.16
2022-10-14T12:27:11.583Z,77.71
2022-10-14T12:29:59.158Z,77.81
2022-10-14T12:32:30.694Z,76.69
2022-10-14T12:35:04.417Z,76.56
2022-10-14T12:37:34.976Z,76.77
2022-10-14T12:40:03.550Z,76.51
2022-10-14T12:42:38.928Z,76.40
2022-10-14T12:45:22.478Z,76.54
2022-10-14T12:48:05.900Z,76.69
2022-10-14T12:50:39.725Z,77.21
2022-10-14T12:53:24.224Z,77.48
2022-10-14T12:55:55.534Z,77.67
2022-10-14T12:58:30.840Z,77.66
2022-10-14T13:01:22.182Z,77.91
2022-10-14T13:04:07.517Z,78.10
2022-10-14T13:06:37.338Z,77.82
2022-10-14T13:09:11.322Z,77.37
2022-10-14T13:11:41.573Z,77.11
2022-10-14T13:14:26.101Z,77.01
2022-10-14T13:17:24.481Z,77.02
2022-10-14T13:19:52.568Z,77.04
2022-10-14T13:22:33.122Z,77.26
2022-10-14T13:25:12.952Z,77.61
2022-10-14T13:27:46.047Z,77.70
2022-10-14T13:31:20.271Z,77.77
2022-10-14T13:33:54.143Z,77.77
2022-10-14T13:36:42.317Z,77.85
2022-10-14T13:39:10.505Z,77.74
2022-10-14T13:41:40.725Z,77.70
2022-10-14T13:44:12.440Z,77.86
2022-10-14T13:46:48.106Z,78.06
2022-10-14T13:49:36.427Z,78.16
2022-10-14T13:52:07.965Z,78.06
2022-10-14T13:54:35.867Z,78.01
2022-10-14T14:00:40.115Z,78.24
2022-10-14T14:03:27.087Z,78.51
2022-10-14T14:05:56.897Z,78.60
2022-10-14T14:08:39.095Z,78.73
2022-10-14T14:11:18.404Z,78.92
2022-10-14T14:14:08.954Z,78.91
2022-10-14T14:16:48.513Z,79.05
2022-10-14T14:19:30.559Z,79.05
2022-10-14T14:22:27.188Z,79.07
2022-10-14T14:25:33.596Z,79.18
2022-10-14T14:28:05.900Z,79.12
2022-10-14T14:30:37.192Z,78.70
2022-10-14T14:33:11.590Z,78.84
2022-10-14T14:35:43.954Z,79.18
2022-10-14T14:38:26.566Z,79.08
2022-10-14T14:41:25.646Z,78.83
2022-10-14T14:44:20.954Z,78.77
2022-10-14T14:46:46.960Z,78.60
2022-10-14T14:49:17.795Z,78.28
2022-10-14T14:51:49.420Z,77.98
2022-10-14T14:54:19.970Z,77.92
2022-10-14T14:57:00.695Z,78.12
2022-10-14T15:00:02.029Z,77.99
2022-10-14T15:02:33.782Z,77.91
2022-10-14T15:05:07.267Z,78.02
2022-10-14T15:07:36.314Z,78.04
2022-10-14T15:10:07.819Z,78.11
2022-10-14T15:12:42.114Z,78.12
2022-10-14T15:15:27.413Z,77.96
2022-10-14T15:18:13.738Z,78.11
2022-10-14T15:20:43.341Z,78.25
2022-10-14T15:24:00.376Z,78.31
2022-10-14T15:26:28.262Z,78.26
2022-10-14T15:29:22.706Z,78.33
2022-10-14T15:32:06.143Z,78.48
2022-10-14T15:34:37.572Z,78.74
2022-10-14T15:37:05.509Z,78.84
2022-10-14T15:39:33.376Z,78.90
2022-10-14T15:42:01.883Z,78.97
2022-10-14T15:44:29.872Z,79.07
2022-10-14T15:47:16.352Z,78.80
2022-10-14T15:49:45.906Z,78.83
2022-10-14T15:52:16.631Z,79.17
2022-10-14T15:54:45.952Z,79.33
2022-10-14T15:57:16.802Z,79.46
2022-10-14T15:59:48.610Z,79.59
2022-10-14T16:02:26.204Z,79.47
2022-10-14T16:05:18.831Z,79.57
2022-10-14T16:07:41.974Z,79.93
2022-10-14T16:10:13.274Z,80.55
2022-10-14T16:12:41.233Z,81.05
2022-10-14T16:15:34.285Z,81.06
2022-10-14T16:18:02.283Z,81.24
2022-10-14T16:20:30.838Z,81.37
2022-10-14T16:22:58.892Z,81.61
2022-10-14T16:25:44.577Z,81.71
2022-10-14T16:28:13.506Z,81.75
2022-10-14T16:30:48.640Z,81.63
2022-10-14T16:33:24.535Z,81.49
2022-10-14T16:35:56.844Z,81.72
2022-10-14T16:38:24.855Z,82.00
2022-10-14T16:40:57.384Z,82.08
2022-10-14T16:43:26.413Z,81.66
2022-10-14T16:45:59.966Z,81.64
2022-10-14T16:48:27.951Z,82.18
2022-10-14T16:50:56.248Z,82.12
2022-10-14T16:53:40.897Z,82.29
2022-10-14T16:56:32.252Z,82.37
2022-10-14T16:59:00.927Z,82.38
2022-10-14T17:01:29.430Z,82.43
2022-10-14T17:03:57.953Z,82.32
2022-10-14T17:06:26.553Z,82.32
2022-10-14T17:08:54.874Z,82.16
2022-10-14T17:11:24.107Z,82.59
2022-10-14T17:13:53.621Z,82.72
2022-10-14T17:16:21.945Z,82.93
2022-10-14T17:18:49.823Z,82.79
2022-10-14T17:21:18.444Z,82.96
2022-10-14T17:23:46.839Z,83.03
2022-10-14T17:26:18.501Z,83.16
2022-10-14T17:28:47.775Z,83.61
2022-10-14T17:31:19.250Z,84.27
2022-10-14T17:33:47.513Z,84.00
2022-10-14T17:36:21.316Z,83.85
2022-10-14T17:38:51.023Z,83.66
2022-10-14T17:41:20.740Z,83.53
2022-10-14T17:43:54.190Z,83.57
2022-10-14T17:46:25.070Z,83.55
2022-10-14T17:48:56.307Z,83.49
2022-10-14T17:51:25.611Z,83.47
2022-10-14T17:53:59.285Z,83.40
2022-10-14T17:56:29.205Z,83.40
2022-10-14T17:59:00.562Z,83.55
2022-10-14T18:01:37.784Z,83.63
2022-10-14T18:04:11.735Z,83.63
2022-10-14T18:06:40.440Z,83.70
2022-10-14T18:09:09.629Z,83.82
2022-10-14T18:12:06.996Z,83.82
2022-10-14T18:14:29.453Z,83.74
2022-10-14T18:16:59.500Z,83.92
2022-10-14T18:19:27.721Z,84.19
2022-10-14T18:21:55.963Z,84.25
2022-10-14T18:24:23.895Z,84.22
2022-10-14T18:26:53.389Z,84.39
2022-10-14T18:29:21.290Z,84.41
2022-10-14T18:34:25.433Z,84.08
2022-10-14T18:36:53.463Z,84.10
2022-10-14T18:39:21.427Z,84.16
2022-10-14T18:41:49.261Z,84.33
2022-10-14T18:44:17.353Z,84.23
2022-10-14T18:46:47.642Z,84.13
2022-10-14T18:49:15.487Z,84.40
2022-10-14T18:51:43.500Z,84.31
2022-10-14T18:54:15.641Z,84.27
2022-10-14T18:56:44.630Z,84.23
2022-10-14T18:59:21.017Z,84.28
2022-10-14T19:01:53.442Z,84.24
2022-10-14T19:04:24.424Z,84.09
2022-10-14T19:06:52.379Z,84.13
2022-10-14T19:09:24.326Z,84.17
2022-10-14T19:11:52.806Z,84.20
2022-10-14T19:14:22.294Z,84.19
2022-10-14T19:16:50.509Z,84.24
2022-10-14T19:19:20.037Z,84.33
2022-10-14T19:21:51.010Z,84.32
2022-10-14T19:24:19.136Z,84.27
2022-10-14T19:26:47.833Z,84.38
2022-10-14T19:29:16.458Z,84.54
2022-10-14T19:31:44.432Z,84.77
2022-10-14T19:34:15.254Z,84.93
2022-10-14T19:36:44.039Z,84.91
2022-10-14T19:39:16.939Z,85.13
2022-10-14T19:41:46.750Z,85.34
2022-10-14T19:44:16.469Z,85.34
2022-10-14T19:46:45.355Z,85.62
2022-10-14T19:49:15.353Z,85.69
2022-10-14T19:51:44.085Z,85.79
2022-10-14T19:54:13.420Z,86.04
2022-10-14T19:56:42.029Z,86.29
2022-10-14T19:59:10.643Z,86.52
2022-10-14T20:01:38.777Z,86.58
2022-10-14T20:04:07.184Z,86.73
2022-10-14T20:06:36.679Z,86.91
2022-10-14T20:09:05.226Z,87.04
2022-10-14T20:11:34.417Z,86.90
2022-10-14T20:14:02.313Z,86.95
2022-10-14T20:16:30.480Z,87.15
2022-10-14T20:18:58.626Z,87.36
2022-10-14T20:21:26.543Z,87.51
2022-10-14T20:23:54.469Z,87.73
2022-10-14T20:26:22.412Z,88.01
2022-10-14T20:28:51.275Z,88.11
2022-10-14T20:31:23.192Z,88.15
2022-10-14T20:33:51.863Z,88.18
2022-10-14T20:36:21.671Z,88.31
2022-10-14T20:38:51.411Z,88.28
2022-10-14T20:41:21.691Z,88.18
2022-10-14T20:43:50.464Z,88.16
2022-10-14T20:46:18.924Z,88.40
2022-10-14T20:48:47.002Z,88.13
2022-10-14T20:51:17.996Z,88.02
2022-10-14T20:53:46.068Z,87.94
2022-10-14T20:56:15.244Z,87.86
2022-10-14T20:58:43.279Z,87.69
2022-10-14T21:01:16.576Z,87.49
2022-10-14T21:03:47.619Z,87.42
2022-10-14T21:06:21.150Z,87.46
2022-10-14T21:08:50.567Z,87.55
2022-10-14T21:11:21.971Z,87.72
2022-10-14T21:13:55.480Z,87.66
2022-10-14T21:16:24.659Z,87.54
2022-10-14T21:18:58.351Z,87.45
2022-10-14T21:21:28.593Z,87.59
2022-10-14T21:23:56.920Z,87.47
2022-10-14T21:26:25.481Z,87.44
2022-10-14T21:28:53.515Z,87.43
2022-10-14T21:31:22.166Z,87.64
2022-10-14T21:34:04.157Z,87.66
2022-10-14T21:36:35.233Z,87.78
2022-10-14T21:39:12.757Z,87.90
2022-10-14T21:41:42.177Z,88.04
2022-10-14T21:44:14.636Z,88.10
2022-10-14T21:46:42.662Z,88.23
2022-10-14T21:49:11.180Z,88.12
2022-10-14T21:51:53.956Z,88.20
2022-10-14T22:02:13.269Z,89.34
2022-10-14T22:04:41.202Z,89.48
2022-10-14T22:07:10.629Z,89.53
2022-10-14T22:09:38.546Z,89.42
2022-10-14T22:12:06.527Z,89.56
2022-10-14T22:14:34.493Z,89.48
2022-10-14T22:17:02.384Z,89.40
2022-10-14T22:19:30.694Z,89.43
2022-10-14T22:21:59.799Z,89.56
2022-10-14T22:24:28.275Z,89.79
2022-10-14T22:26:56.255Z,89.98
2022-10-14T22:29:24.141Z,89.81
2022-10-14T22:31:51.996Z,90.22
2022-10-14T22:34:19.935Z,89.96
2022-10-14T22:36:47.856Z,89.63
2022-10-14T22:39:17.151Z,89.75
2022-10-14T22:41:45.072Z,89.96
2022-10-14T22:44:13.037Z,89.89
2022-10-14T22:46:41.230Z,89.97
2022-10-14T22:49:09.288Z,90.00
2022-10-14T22:51:42.492Z,89.94
2022-10-14T22:54:11.062Z,89.92
2022-10-14T22:56:39.498Z,89.98
2022-10-14T22:59:11.992Z,89.87
2022-10-14T23:01:42.441Z,90.08
2022-10-14T23:04:11.602Z,89.84
2022-10-14T23:06:40.067Z,89.75
2022-10-14T23:09:10.247Z,90.03
2022-10-14T23:11:38.636Z,90.07
2022-10-14T23:14:07.585Z,89.74
2022-10-14T23:16:36.526Z,89.54
2022-10-14T23:19:04.778Z,89.55
2022-10-14T23:21:35.319Z,89.78
2022-10-14T23:24:10.337Z,89.89
2022-10-14T23:26:38.635Z,89.99
2022-10-14T23:29:09.998Z,90.01
2022-10-14T23:31:40.387Z,90.19
2022-10-14T23:34:12.481Z,90.38
2022-10-14T23:36:41.268Z,90.52
2022-10-14T23:39:09.560Z,90.46
2022-10-14T23:41:37.584Z,90.46
2022-10-14T23:44:05.671Z,90.55
2022-10-14T23:46:33.824Z,90.66
2022-10-14T23:49:07.310Z,90.70
2022-10-14T23:51:42.714Z,90.69
2022-10-14T23:54:11.666Z,90.72
2022-10-14T23:56:41.414Z,90.99
2022-10-14T23:59:09.270Z,91.12
